createdAt,value
2022-12-14T00:01:54.793Z,4.23
2022-12-14T00:04:21.801Z,3.90
2022-12-14T00:06:48.562Z,3.43
2022-12-14T00:09:22.490Z,3.60
2022-12-14T00:11:49.492Z,3.80
2022-12-14T00:14:16.185Z,3.80
2022-12-14T00:16:42.893Z,3.27
2022-12-14T00:19:11.531Z,3.50
2022-12-14T00:21:41.501Z,3.60
2022-12-14T00:24:08.829Z,3.43
2022-12-14T00:26:35.572Z,3.40
2022-12-14T00:29:03.451Z,3.30
2022-12-14T00:31:31.696Z,3.43
2022-12-14T00:33:58.931Z,3.50
2022-12-14T00:36:25.919Z,3.53
2022-12-14T00:38:52.702Z,4.30
2022-12-14T00:41:19.764Z,3.83
2022-12-14T00:43:49.329Z,3.67
2022-12-14T00:46:16.847Z,3.87
2022-12-14T00:48:47.171Z,3.93
2022-12-14T00:51:15.045Z,3.53
2022-12-14T00:53:45.473Z,3.40
2022-12-14T00:56:12.745Z,3.63
2022-12-14T00:58:39.533Z,3.37
2022-12-14T01:01:13.832Z,3.53
2022-12-14T01:03:40.923Z,3.80
2022-12-14T01:06:22.265Z,3.63
2022-12-14T01:08:55.090Z,3.50
2022-12-14T01:11:22.090Z,3.20
2022-12-14T01:13:49.701Z,3.60
2022-12-14T01:16:19.959Z,3.10
2022-12-14T01:18:55.928Z,3.10
2022-12-14T01:21:24.562Z,3.37
2022-12-14T01:23:57.109Z,3.63
2022-12-14T01:26:25.237Z,2.90
2022-12-14T01:28:56.504Z,3.33
2022-12-14T01:31:27.430Z,3.40
2022-12-14T01:33:54.796Z,3.03
2022-12-14T01:36:25.022Z,2.77
2022-12-14T01:39:04.699Z,3.10
2022-12-14T01:41:38.824Z,3.23
2022-12-14T01:44:11.717Z,3.43
2022-12-14T01:47:12.691Z,2.70
2022-12-14T01:50:10.871Z,3.40
2022-12-14T01:52:46.178Z,2.90
2022-12-14T01:55:36.131Z,2.57
2022-12-14T01:58:26.437Z,2.87
2022-12-14T02:00:59.443Z,3.03
2022-12-14T02:03:32.560Z,3.27
2022-12-14T02:06:19.075Z,2.77
2022-12-14T02:08:47.512Z,3.13
2022-12-14T02:11:14.940Z,2.97
2022-12-14T02:13:42.979Z,2.60
2022-12-14T02:16:11.172Z,2.70
2022-12-14T02:18:40.139Z,3.23
2022-12-14T02:21:31.737Z,3.37
2022-12-14T02:24:36.101Z,2.67
2022-12-14T02:27:41.429Z,2.50
2022-12-14T02:30:13.270Z,2.90
2022-12-14T02:32:58.358Z,2.73
2022-12-14T02:35:55.156Z,2.87
2022-12-14T02:38:24.440Z,2.60
2022-12-14T02:41:26.634Z,2.37
2022-12-14T02:43:59.807Z,2.73
2022-12-14T02:46:54.437Z,2.63
2022-12-14T02:49:40.616Z,2.30
2022-12-14T02:52:45.049Z,2.50
2022-12-14T02:55:21.296Z,3.13
2022-12-14T02:58:25.429Z,2.90
2022-12-14T03:00:54.761Z,2.43
2022-12-14T03:03:21.593Z,2.50
2022-12-14T03:06:00.073Z,3.20
2022-12-14T03:08:32.006Z,2.47
2022-12-14T03:11:02.518Z,2.77
2022-12-14T03:13:41.315Z,2.37
2022-12-14T03:16:24.149Z,2.70
2022-12-14T03:19:02.714Z,2.37
2022-12-14T03:21:35.494Z,2.67
2022-12-14T03:24:07.538Z,2.90
2022-12-14T03:26:47.372Z,2.50
2022-12-14T03:29:34.520Z,3.00
2022-12-14T03:32:14.254Z,2.93
2022-12-14T03:34:49.144Z,2.90
2022-12-14T03:37:40.773Z,2.53
2022-12-14T03:40:11.261Z,2.80
2022-12-14T03:43:05.776Z,2.73
2022-12-14T03:46:10.640Z,2.73
2022-12-14T03:48:59.428Z,2.60
2022-12-14T03:52:08.653Z,2.30
2022-12-14T03:54:51.971Z,2.60
2022-12-14T03:57:49.060Z,2.80
2022-12-14T04:00:24.548Z,2.70
2022-12-14T04:03:09.553Z,2.80
2022-12-14T04:05:55.107Z,2.87
2022-12-14T04:08:43.885Z,2.50
2022-12-14T04:11:32.198Z,2.37
2022-12-14T04:14:46.659Z,2.77
2022-12-14T04:17:37.323Z,2.87
2022-12-14T04:20:04.100Z,2.77
2022-12-14T04:22:40.550Z,2.90
2022-12-14T04:25:34.985Z,2.57
2022-12-14T04:28:39.764Z,2.80
2022-12-14T04:31:13.470Z,2.90
2022-12-14T04:33:55.028Z,2.70
2022-12-14T04:36:37.511Z,2.90
2022-12-14T04:39:35.162Z,2.73
2022-12-14T04:42:04.865Z,2.60
2022-12-14T04:44:36.910Z,2.80
2022-12-14T04:47:10.921Z,2.80
2022-12-14T04:49:51.043Z,3.00
2022-12-14T04:52:36.477Z,2.37
2022-12-14T04:55:35.638Z,2.67
2022-12-14T04:58:26.065Z,2.57
2022-12-14T05:01:31.079Z,2.27
2022-12-14T05:04:12.548Z,2.70
2022-12-14T05:06:56.641Z,2.90
2022-12-14T05:09:55.249Z,3.03
2022-12-14T05:12:38.056Z,2.73
2022-12-14T05:15:10.600Z,2.70
2022-12-14T05:17:39.230Z,2.83
2022-12-14T05:20:13.023Z,2.60
2022-12-14T05:22:43.060Z,2.90
2022-12-14T05:25:10.518Z,2.57
2022-12-14T05:27:40.343Z,2.97
2022-12-14T05:30:11.128Z,2.73
2022-12-14T05:32:41.268Z,2.83
2022-12-14T05:35:11.248Z,3.10
2022-12-14T05:37:38.029Z,2.30
2022-12-14T05:40:05.763Z,2.97
2022-12-14T05:42:38.273Z,2.87
2022-12-14T05:45:12.314Z,2.80
2022-12-14T05:47:39.766Z,3.27
2022-12-14T05:50:07.444Z,3.07
2022-12-14T05:52:37.085Z,2.80
2022-12-14T05:55:07.030Z,3.50
2022-12-14T05:57:40.616Z,2.93
2022-12-14T06:00:08.564Z,3.20
2022-12-14T06:02:35.725Z,2.97
2022-12-14T06:05:05.768Z,3.30
2022-12-14T06:07:35.864Z,3.50
2022-12-14T06:10:02.657Z,3.07
2022-12-14T06:12:29.429Z,3.33
2022-12-14T06:14:56.220Z,3.07
2022-12-14T06:17:26.026Z,3.33
2022-12-14T06:19:53.008Z,3.37
2022-12-14T06:22:23.715Z,3.60
2022-12-14T06:24:53.690Z,3.30
2022-12-14T06:27:20.755Z,2.77
2022-12-14T06:29:47.446Z,3.40
2022-12-14T06:32:14.328Z,3.50
2022-12-14T06:34:46.540Z,3.30
2022-12-14T06:37:14.098Z,3.60
2022-12-14T06:39:44.627Z,3.67
2022-12-14T06:42:17.365Z,3.70
2022-12-14T06:44:44.359Z,3.37
2022-12-14T06:47:11.075Z,3.20
2022-12-14T06:49:37.812Z,3.00
2022-12-14T06:52:07.434Z,3.63
2022-12-14T06:54:34.402Z,3.43
2022-12-14T06:57:01.918Z,3.43
2022-12-14T06:59:28.665Z,3.80
2022-12-14T07:02:04.964Z,3.67
2022-12-14T07:04:31.725Z,3.70
2022-12-14T07:06:58.415Z,3.70
2022-12-14T07:09:25.443Z,4.00
2022-12-14T07:11:52.395Z,4.20
2022-12-14T07:14:21.324Z,3.73
2022-12-14T07:16:52.838Z,4.20
2022-12-14T07:19:19.627Z,4.53
2022-12-14T07:21:46.380Z,3.80
2022-12-14T07:24:13.394Z,3.90
2022-12-14T07:26:40.250Z,3.70
2022-12-14T07:29:06.964Z,4.03
2022-12-14T07:31:34.118Z,3.53
2022-12-14T07:34:03.167Z,3.97
2022-12-14T07:36:30.733Z,3.87
2022-12-14T07:38:58.174Z,3.70
2022-12-14T07:41:27.965Z,4.30
2022-12-14T07:44:00.254Z,3.90
2022-12-14T07:46:29.129Z,3.37
2022-12-14T07:49:02.754Z,4.40
2022-12-14T07:51:32.493Z,3.80
2022-12-14T07:54:01.392Z,4.17
2022-12-14T07:56:34.380Z,4.13
2022-12-14T07:59:03.228Z,4.10
2022-12-14T08:01:34.200Z,4.33
2022-12-14T08:04:18.142Z,4.17
2022-12-14T08:06:47.389Z,4.17
2022-12-14T08:09:15.633Z,4.43
2022-12-14T08:11:42.715Z,4.47
2022-12-14T08:14:16.556Z,5.07
2022-12-14T08:16:44.646Z,5.80
2022-12-14T08:19:13.045Z,7.10
2022-12-14T08:21:40.701Z,6.13
2022-12-14T08:24:07.827Z,5.13
2022-12-14T08:26:36.049Z,8.37
2022-12-14T08:29:04.195Z,6.33
2022-12-14T08:31:31.995Z,7.40
2022-12-14T08:34:00.411Z,6.70
2022-12-14T08:36:39.421Z,7.63
2022-12-14T08:39:08.508Z,8.67
2022-12-14T08:41:36.138Z,8.70
2022-12-14T08:44:04.444Z,8.13
2022-12-14T08:46:33.866Z,9.33
2022-12-14T08:49:01.659Z,10.23
2022-12-14T08:51:32.030Z,9.87
2022-12-14T08:53:59.264Z,12.90
2022-12-14T08:56:27.778Z,13.67
2022-12-14T08:59:03.286Z,15.50
2022-12-14T09:01:34.040Z,17.23
2022-12-14T09:04:06.977Z,16.50
2022-12-14T09:06:39.742Z,15.77
2022-12-14T09:09:15.270Z,15.27
2022-12-14T09:11:48.804Z,15.47
2022-12-14T09:14:15.928Z,15.23
2022-12-14T09:16:42.779Z,13.23
2022-12-14T09:19:09.571Z,13.30
2022-12-14T09:21:36.453Z,15.77
2022-12-14T09:24:03.771Z,12.87
2022-12-14T09:26:33.502Z,12.93
2022-12-14T09:29:03.840Z,12.17
2022-12-14T09:31:31.000Z,12.77
2022-12-14T09:33:57.872Z,11.13
2022-12-14T09:36:27.455Z,10.67
2022-12-14T09:38:58.279Z,11.13
2022-12-14T09:41:28.636Z,10.70
2022-12-14T09:44:18.867Z,10.83
2022-12-14T09:46:56.754Z,9.63
2022-12-14T09:49:28.743Z,9.60
2022-12-14T09:52:01.691Z,10.50
2022-12-14T09:54:33.760Z,10.17
2022-12-14T09:57:29.319Z,9.73
2022-12-14T09:59:59.142Z,9.10
2022-12-14T10:02:48.283Z,9.50
2022-12-14T10:05:55.863Z,8.33
2022-12-14T10:08:36.646Z,9.67
2022-12-14T10:11:22.045Z,8.93
2022-12-14T10:14:09.981Z,8.13
2022-12-14T10:16:41.078Z,8.83
2022-12-14T10:19:35.507Z,8.10
2022-12-14T10:22:09.925Z,8.07
2022-12-14T10:24:42.877Z,7.97
2022-12-14T10:27:16.834Z,8.50
2022-12-14T10:29:49.324Z,7.63
2022-12-14T10:32:45.305Z,8.53
2022-12-14T10:35:42.088Z,8.00
2022-12-14T10:38:32.063Z,7.43
2022-12-14T10:41:28.531Z,7.13
2022-12-14T10:44:15.510Z,7.13
2022-12-14T10:47:03.507Z,7.43
2022-12-14T10:49:42.279Z,7.47
2022-12-14T10:52:36.094Z,8.23
2022-12-14T10:55:14.207Z,6.53
2022-12-14T10:57:41.373Z,7.03
2022-12-14T11:00:22.581Z,6.30
2022-12-14T11:02:57.147Z,7.40
2022-12-14T11:06:02.570Z,6.90
2022-12-14T11:08:58.352Z,6.47
2022-12-14T11:11:27.201Z,6.73
2022-12-14T11:14:15.461Z,6.73
2022-12-14T11:16:42.377Z,7.03
2022-12-14T11:19:19.421Z,7.07
2022-12-14T11:21:50.011Z,6.37
2022-12-14T11:24:25.802Z,6.83
2022-12-14T11:27:01.225Z,6.63
2022-12-14T11:29:37.996Z,6.67
2022-12-14T11:32:06.156Z,7.00
2022-12-14T11:34:42.657Z,7.97
2022-12-14T11:37:20.233Z,6.97
2022-12-14T11:39:52.204Z,7.47
2022-12-14T11:42:22.842Z,7.23
2022-12-14T11:44:51.863Z,6.83
2022-12-14T11:47:29.251Z,6.80
2022-12-14T11:49:57.853Z,7.93
2022-12-14T11:53:09.356Z,7.17
2022-12-14T11:55:40.630Z,6.60
2022-12-14T11:58:17.806Z,6.37
2022-12-14T12:00:49.315Z,7.77
2022-12-14T12:03:39.449Z,7.47
2022-12-14T12:06:12.853Z,7.23
2022-12-14T12:08:45.552Z,6.97
2022-12-14T12:11:33.395Z,7.50
2022-12-14T12:14:15.179Z,7.50
2022-12-14T12:19:38.803Z,6.63
2022-12-14T12:22:09.213Z,6.43
2022-12-14T12:25:25.633Z,7.33
2022-12-14T12:28:05.669Z,7.27
2022-12-14T12:30:36.839Z,7.27
2022-12-14T12:33:14.589Z,8.43
2022-12-14T12:35:52.205Z,7.93
2022-12-14T12:38:40.728Z,7.80
2022-12-14T12:41:45.852Z,8.07
2022-12-14T12:44:41.729Z,7.57
2022-12-14T12:47:27.402Z,7.30
2022-12-14T12:50:13.442Z,8.20
2022-12-14T12:53:03.516Z,8.03
2022-12-14T12:55:38.210Z,8.47
2022-12-14T12:58:10.311Z,7.80
2022-12-14T13:00:39.286Z,8.10
2022-12-14T13:03:13.896Z,8.40
2022-12-14T13:05:47.346Z,9.40
2022-12-14T13:08:27.953Z,9.30
2022-12-14T13:11:25.099Z,8.93
2022-12-14T13:13:52.836Z,8.87
2022-12-14T13:16:46.514Z,8.60
2022-12-14T13:19:54.547Z,9.63
2022-12-14T13:22:29.537Z,8.40
2022-12-14T13:25:14.324Z,9.80
2022-12-14T13:28:16.377Z,9.07
2022-12-14T13:31:20.770Z,8.87
2022-12-14T13:34:14.774Z,8.53
2022-12-14T13:37:17.307Z,8.63
2022-12-14T13:40:02.013Z,8.07
2022-12-14T13:42:56.006Z,9.07
2022-12-14T13:45:30.226Z,9.20
2022-12-14T13:47:58.944Z,8.77
2022-12-14T13:50:38.155Z,8.57
2022-12-14T13:53:30.152Z,9.53
2022-12-14T13:56:01.983Z,9.17
2022-12-14T14:01:22.621Z,8.60
2022-12-14T14:03:56.677Z,8.80
2022-12-14T14:06:39.837Z,8.67
2022-12-14T14:09:29.032Z,8.17
2022-12-14T14:12:01.546Z,8.90
2022-12-14T14:15:02.311Z,9.00
2022-12-14T14:17:35.029Z,8.83
2022-12-14T14:20:44.291Z,9.37
2022-12-14T14:23:13.989Z,8.20
2022-12-14T14:25:54.262Z,8.63
2022-12-14T14:28:28.447Z,8.63
2022-12-14T14:30:57.875Z,9.40
2022-12-14T14:33:55.183Z,9.57
2022-12-14T14:36:36.115Z,9.37
2022-12-14T14:39:54.612Z,9.20
2022-12-14T14:42:24.044Z,8.67
2022-12-14T14:44:58.729Z,9.53
2022-12-14T14:47:37.608Z,8.97
2022-12-14T14:50:16.390Z,9.83
2022-12-14T14:52:43.076Z,9.53
2022-12-14T14:55:51.918Z,9.07
2022-12-14T14:58:32.151Z,9.60
2022-12-14T15:01:06.665Z,9.13
2022-12-14T15:03:48.872Z,9.27
2022-12-14T15:06:27.195Z,8.77
2022-12-14T15:09:05.271Z,9.67
2022-12-14T15:11:56.030Z,9.90
2022-12-14T15:14:46.682Z,9.83
2022-12-14T15:17:21.249Z,9.07
2022-12-14T15:19:50.675Z,9.17
2022-12-14T15:22:23.650Z,10.10
2022-12-14T15:24:53.950Z,9.43
2022-12-14T15:27:29.355Z,9.60
2022-12-14T15:30:11.615Z,9.30
2022-12-14T15:32:48.698Z,9.23
2022-12-14T15:35:21.459Z,9.80
2022-12-14T15:37:59.950Z,9.07
2022-12-14T15:40:30.520Z,10.77
2022-12-14T15:43:00.471Z,9.70
2022-12-14T15:45:30.183Z,8.40
2022-12-14T15:48:12.351Z,8.77
2022-12-14T15:50:43.398Z,8.77
2022-12-14T15:53:18.684Z,10.07
2022-12-14T15:55:56.398Z,9.20
2022-12-14T15:58:37.700Z,9.27
2022-12-14T16:01:32.808Z,10.30
2022-12-14T16:04:05.373Z,9.30
2022-12-14T16:06:36.838Z,9.47
2022-12-14T16:09:30.994Z,9.90
2022-12-14T16:12:18.868Z,10.17
2022-12-14T16:15:00.736Z,9.93
2022-12-14T16:17:37.022Z,10.50
2022-12-14T16:20:12.034Z,8.80
2022-12-14T16:22:41.085Z,9.27
2022-12-14T16:25:07.850Z,9.53
2022-12-14T16:27:49.826Z,9.63
2022-12-14T16:30:20.028Z,9.40
2022-12-14T16:32:51.174Z,10.30
2022-12-14T16:35:20.362Z,9.77
2022-12-14T16:37:51.265Z,9.53
2022-12-14T16:40:30.698Z,9.60
2022-12-14T16:42:57.562Z,10.40
2022-12-14T16:45:46.179Z,9.80
2022-12-14T16:48:22.295Z,9.90
2022-12-14T16:51:02.941Z,10.20
2022-12-14T16:53:34.943Z,10.00
2022-12-14T16:56:14.226Z,9.40
2022-12-14T16:59:01.741Z,9.47
2022-12-14T17:01:37.358Z,9.37
2022-12-14T17:04:06.595Z,10.30
2022-12-14T17:06:46.587Z,10.33
2022-12-14T17:09:25.957Z,9.07
2022-12-14T17:11:56.092Z,9.47
2022-12-14T17:14:23.086Z,9.10
2022-12-14T17:16:55.977Z,10.67
2022-12-14T17:19:36.028Z,9.97
2022-12-14T17:22:12.617Z,10.07
2022-12-14T17:24:48.753Z,10.20
2022-12-14T17:27:17.459Z,10.10
2022-12-14T17:29:44.502Z,10.17
2022-12-14T17:32:17.099Z,9.90
2022-12-14T17:34:47.756Z,9.00
2022-12-14T17:37:21.832Z,9.73
2022-12-14T17:39:52.154Z,10.53
2022-12-14T17:42:21.790Z,9.77
2022-12-14T17:44:56.473Z,10.00
2022-12-14T17:47:23.325Z,9.20
2022-12-14T17:49:50.080Z,10.07
2022-12-14T17:52:35.653Z,9.43
2022-12-14T17:55:02.405Z,10.23
2022-12-14T17:57:29.100Z,9.57
2022-12-14T18:00:14.223Z,9.47
2022-12-14T18:02:45.659Z,9.50
2022-12-14T18:05:20.318Z,9.27
2022-12-14T18:07:49.707Z,8.93
2022-12-14T18:10:18.453Z,9.03
2022-12-14T18:12:47.618Z,8.13
2022-12-14T18:15:21.592Z,9.13
2022-12-14T18:17:51.178Z,8.80
2022-12-14T18:20:20.163Z,8.63
2022-12-14T18:22:51.051Z,10.17
2022-12-14T18:25:35.502Z,9.50
2022-12-14T18:28:05.056Z,9.87
2022-12-14T18:30:39.710Z,9.13
2022-12-14T18:33:18.406Z,9.30
2022-12-14T18:35:46.377Z,8.70
2022-12-14T18:38:16.175Z,10.27
2022-12-14T18:40:47.729Z,9.30
2022-12-14T18:43:20.058Z,10.47
2022-12-14T18:45:46.961Z,9.97
2022-12-14T18:48:13.741Z,10.10
2022-12-14T18:50:43.161Z,9.37
2022-12-14T18:53:15.014Z,10.20
2022-12-14T18:55:42.314Z,10.20
2022-12-14T18:58:22.725Z,8.63
2022-12-14T19:00:55.114Z,9.80
2022-12-14T19:03:23.016Z,10.27
2022-12-14T19:05:50.251Z,11.00
2022-12-14T19:08:20.163Z,9.80
2022-12-14T19:10:48.459Z,10.57
2022-12-14T19:13:24.998Z,10.40
2022-12-14T19:15:53.684Z,9.90
2022-12-14T19:18:20.982Z,9.80
2022-12-14T19:20:49.672Z,10.87
2022-12-14T19:23:18.998Z,11.50
2022-12-14T19:25:49.280Z,10.90
2022-12-14T19:28:31.351Z,10.27
2022-12-14T19:30:59.854Z,9.80
2022-12-14T19:33:27.106Z,9.87
2022-12-14T19:35:54.520Z,9.60
2022-12-14T19:38:21.333Z,9.27
2022-12-14T19:41:04.668Z,9.93
2022-12-14T19:43:31.925Z,10.23
2022-12-14T19:45:59.029Z,10.40
2022-12-14T19:48:26.046Z,9.90
2022-12-14T19:50:52.814Z,10.37
2022-12-14T19:53:23.738Z,9.17
2022-12-14T19:55:56.811Z,10.60
2022-12-14T19:58:25.333Z,10.03
2022-12-14T20:00:52.332Z,10.63
2022-12-14T20:03:19.129Z,10.17
2022-12-14T20:05:58.803Z,9.20
2022-12-14T20:11:11.950Z,10.63
2022-12-14T20:13:42.207Z,9.70
2022-12-14T20:16:16.553Z,10.67
2022-12-14T20:18:45.955Z,11.33
2022-12-14T20:21:18.501Z,10.50
2022-12-14T20:23:49.582Z,10.57
2022-12-14T20:26:18.950Z,10.47
2022-12-14T20:28:50.208Z,10.60
2022-12-14T20:31:17.007Z,10.77
2022-12-14T20:33:44.703Z,11.13
2022-12-14T20:36:14.523Z,11.83
2022-12-14T20:38:45.182Z,11.70
2022-12-14T20:41:17.197Z,10.73
2022-12-14T20:43:45.569Z,10.97
2022-12-14T20:46:28.519Z,10.47
2022-12-14T20:48:56.912Z,10.77
2022-12-14T20:51:26.795Z,10.63
2022-12-14T20:53:53.640Z,10.90
2022-12-14T20:56:20.433Z,10.57
2022-12-14T20:58:48.536Z,10.03
2022-12-14T21:01:19.627Z,10.60
2022-12-14T21:03:47.261Z,10.57
2022-12-14T21:06:15.991Z,10.27
2022-12-14T21:09:01.924Z,10.37
2022-12-14T21:11:51.681Z,9.60
2022-12-14T21:14:20.448Z,10.50
2022-12-14T21:16:52.553Z,9.27
2022-12-14T21:19:31.434Z,9.73
2022-12-14T21:22:01.298Z,9.93
2022-12-14T21:27:27.706Z,9.77
2022-12-14T21:29:54.622Z,9.70
2022-12-14T21:32:24.907Z,9.03
2022-12-14T21:34:51.985Z,9.57
2022-12-14T21:37:19.557Z,10.37
2022-12-14T21:39:55.191Z,9.40
2022-12-14T21:42:28.611Z,10.17
2022-12-14T21:44:56.157Z,9.20
2022-12-14T21:47:31.501Z,10.03
2022-12-14T21:49:58.280Z,9.97
2022-12-14T21:52:27.297Z,10.17
2022-12-14T21:54:54.238Z,10.07
2022-12-14T21:57:50.018Z,10.07
2022-12-14T22:00:17.823Z,8.97
2022-12-14T22:02:44.966Z,8.87
2022-12-14T22:05:12.102Z,10.00
2022-12-14T22:07:39.238Z,9.83
2022-12-14T22:10:08.504Z,9.27
2022-12-14T22:12:35.496Z,9.17
2022-12-14T22:15:02.513Z,8.90
2022-12-14T22:17:29.189Z,9.20
2022-12-14T22:20:02.087Z,8.83
2022-12-14T22:22:28.864Z,9.03
2022-12-14T22:24:55.590Z,9.27
2022-12-14T22:27:22.561Z,8.33
2022-12-14T22:29:52.461Z,8.40
2022-12-14T22:32:19.610Z,8.83
2022-12-14T22:34:50.058Z,9.07
2022-12-14T22:37:23.190Z,8.40
2022-12-14T22:39:50.206Z,8.60
2022-12-14T22:42:16.896Z,8.70
2022-12-14T22:44:52.238Z,8.27
2022-12-14T22:47:18.993Z,8.20
2022-12-14T22:49:45.752Z,8.40
2022-12-14T22:52:12.763Z,8.10
2022-12-14T22:54:39.920Z,8.80
2022-12-14T22:57:19.283Z,8.43
2022-12-14T23:00:07.727Z,7.87
2022-12-14T23:02:34.814Z,8.30
2022-12-14T23:05:01.670Z,8.40
2022-12-14T23:07:28.428Z,7.63
2022-12-14T23:10:19.336Z,7.60
2022-12-14T23:13:10.406Z,7.83
2022-12-14T23:15:56.214Z,8.43
2022-12-14T23:18:41.486Z,7.80
2022-12-14T23:21:31.999Z,6.83
2022-12-14T23:24:20.066Z,7.43
2022-12-14T23:27:11.030Z,7.43
2022-12-14T23:29:59.905Z,7.30
2022-12-14T23:32:45.598Z,7.20
2022-12-14T23:35:31.192Z,7.37
2022-12-14T23:38:25.768Z,7.03
2022-12-14T23:41:16.744Z,7.40
2022-12-14T23:44:10.459Z,7.03
2022-12-14T23:46:58.632Z,6.50
2022-12-14T23:49:44.233Z,6.53
2022-12-14T23:52:36.023Z,7.13
2022-12-14T23:55:21.790Z,7.40
2022-12-14T23:58:18.502Z,7.43
